sensor_id;sensor_type;location;lat;lon;timestamp;pressure;altitude;pressure_sealevel;temperature;humidity
33781;BME280;20097;50.832;19.100;2022-07-06T00:00:18;98471.47;;;16.94;100.00
33781;BME280;20097;50.832;19.100;2022-07-06T00:05:22;98476.75;;;16.88;100.00
33781;BME280;20097;50.832;19.100;2022-07-06T00:10:27;98477.38;;;16.77;100.00
33781;BME280;20097;50.832;19.100;2022-07-06T00:15:32;98474.56;;;16.78;100.00
33781;BME280;20097;50.832;19.100;2022-07-06T00:20:37;98475.34;;;16.79;100.00
33781;BME280;20097;50.832;19.100;2022-07-06T00:25:41;98470.31;;;16.71;100.00
33781;BME280;20097;50.832;19.100;2022-07-06T00:30:47;98473.38;;;16.68;100.00
33781;BME280;20097;50.832;19.100;2022-07-06T00:35:58;98474.38;;;16.73;100.00
33781;BME280;20097;50.832;19.100;2022-07-06T00:41:09;98462.00;;;16.67;100.00
33781;BME280;20097;50.832;19.100;2022-07-06T00:46:23;98465.88;;;16.71;100.00
33781;BME280;20097;50.832;19.100;2022-07-06T00:51:35;98478.06;;;16.59;100.00
33781;BME280;20097;50.832;19.100;2022-07-06T00:56:48;98472.78;;;16.59;100.00
33781;BME280;20097;50.832;19.100;2022-07-06T01:02:09;98473.63;;;16.40;100.00
33781;BME280;20097;50.832;19.100;2022-07-06T01:07:18;98468.75;;;16.43;100.00
33781;BME280;20097;50.832;19.100;2022-07-06T01:12:23;98465.75;;;16.27;100.00
33781;BME280;20097;50.832;19.100;2022-07-06T01:17:37;98450.75;;;16.27;100.00
33781;BME280;20097;50.832;19.100;2022-07-06T01:23:11;98455.59;;;16.30;100.00
33781;BME280;20097;50.832;19.100;2022-07-06T01:28:18;98455.00;;;16.28;100.00
33781;BME280;20097;50.832;19.100;2022-07-06T01:33:25;98441.84;;;16.22;100.00
33781;BME280;20097;50.832;19.100;2022-07-06T01:38:46;98458.88;;;16.13;100.00
33781;BME280;20097;50.832;19.100;2022-07-06T01:43:53;98458.25;;;16.11;100.00
33781;BME280;20097;50.832;19.100;2022-07-06T01:48:58;98463.97;;;15.95;100.00
33781;BME280;20097;50.832;19.100;2022-07-06T01:54:04;98459.31;;;15.97;100.00
33781;BME280;20097;50.832;19.100;2022-07-06T01:59:11;98448.16;;;15.82;100.00
33781;BME280;20097;50.832;19.100;2022-07-06T02:04:23;98453.63;;;15.74;100.00
33781;BME280;20097;50.832;19.100;2022-07-06T02:09:36;98453.22;;;15.77;100.00
33781;BME280;20097;50.832;19.100;2022-07-06T02:14:49;98454.25;;;15.76;100.00
33781;BME280;20097;50.832;19.100;2022-07-06T02:19:59;98449.34;;;15.73;100.00
33781;BME280;20097;50.832;19.100;2022-07-06T02:25:14;98446.72;;;15.73;100.00
33781;BME280;20097;50.832;19.100;2022-07-06T02:30:30;98438.63;;;15.61;100.00
33781;BME280;20097;50.832;19.100;2022-07-06T02:35:35;98448.16;;;15.49;100.00
33781;BME280;20097;50.832;19.100;2022-07-06T02:40:42;98441.06;;;15.50;100.00
33781;BME280;20097;50.832;19.100;2022-07-06T02:45:50;98447.94;;;15.44;100.00
33781;BME280;20097;50.832;19.100;2022-07-06T02:50:59;98447.72;;;15.39;100.00
33781;BME280;20097;50.832;19.100;2022-07-06T02:56:08;98453.16;;;15.38;100.00
33781;BME280;20097;50.832;19.100;2022-07-06T03:01:12;98454.38;;;15.29;100.00
33781;BME280;20097;50.832;19.100;2022-07-06T03:06:20;98447.22;;;15.16;100.00
33781;BME280;20097;50.832;19.100;2022-07-06T03:11:26;98449.25;;;15.14;100.00
33781;BME280;20097;50.832;19.100;2022-07-06T03:16:32;98441.97;;;15.09;100.00
33781;BME280;20097;50.832;19.100;2022-07-06T03:21:39;98447.78;;;14.98;100.00
33781;BME280;20097;50.832;19.100;2022-07-06T03:26:45;98435.06;;;14.95;100.00
33781;BME280;20097;50.832;19.100;2022-07-06T03:31:54;98432.63;;;15.00;100.00
33781;BME280;20097;50.832;19.100;2022-07-06T03:37:05;98427.81;;;15.10;100.00
33781;BME280;20097;50.832;19.100;2022-07-06T03:42:14;98431.06;;;15.19;100.00
33781;BME280;20097;50.832;19.100;2022-07-06T03:47:19;98428.84;;;15.29;100.00
33781;BME280;20097;50.832;19.100;2022-07-06T03:52:23;98428.66;;;15.37;100.00
33781;BME280;20097;50.832;19.100;2022-07-06T03:57:32;98432.16;;;15.44;100.00
33781;BME280;20097;50.832;19.100;2022-07-06T04:02:42;98425.09;;;15.51;100.00
33781;BME280;20097;50.832;19.100;2022-07-06T04:07:58;98433.56;;;15.60;100.00
33781;BME280;20097;50.832;19.100;2022-07-06T04:13:12;98441.25;;;15.74;100.00
33781;BME280;20097;50.832;19.100;2022-07-06T04:18:19;98446.72;;;15.92;100.00
33781;BME280;20097;50.832;19.100;2022-07-06T04:23:28;98447.31;;;16.07;100.00
33781;BME280;20097;50.832;19.100;2022-07-06T04:28:35;98448.69;;;16.29;100.00
33781;BME280;20097;50.832;19.100;2022-07-06T04:33:45;98447.69;;;16.50;100.00
33781;BME280;20097;50.832;19.100;2022-07-06T04:38:56;98464.66;;;16.67;100.00
33781;BME280;20097;50.832;19.100;2022-07-06T04:44:02;98466.25;;;16.75;100.00
33781;BME280;20097;50.832;19.100;2022-07-06T04:49:07;98457.69;;;16.86;100.00
33781;BME280;20097;50.832;19.100;2022-07-06T04:54:13;98461.66;;;17.01;100.00
33781;BME280;20097;50.832;19.100;2022-07-06T04:59:22;98462.38;;;17.21;100.00
33781;BME280;20097;50.832;19.100;2022-07-06T05:04:30;98464.09;;;17.40;100.00
33781;BME280;20097;50.832;19.100;2022-07-06T05:09:35;98462.59;;;17.57;100.00
33781;BME280;20097;50.832;19.100;2022-07-06T05:14:41;98464.56;;;17.68;100.00
33781;BME280;20097;50.832;19.100;2022-07-06T05:19:46;98460.22;;;17.81;100.00
33781;BME280;20097;50.832;19.100;2022-07-06T05:24:50;98464.63;;;17.87;100.00
33781;BME280;20097;50.832;19.100;2022-07-06T05:29:57;98473.31;;;18.12;100.00
33781;BME280;20097;50.832;19.100;2022-07-06T05:35:02;98480.78;;;18.21;100.00
33781;BME280;20097;50.832;19.100;2022-07-06T05:40:26;98481.94;;;18.50;100.00
33781;BME280;20097;50.832;19.100;2022-07-06T05:45:32;98490.72;;;18.68;100.00
33781;BME280;20097;50.832;19.100;2022-07-06T05:50:38;98491.06;;;18.90;100.00
33781;BME280;20097;50.832;19.100;2022-07-06T05:55:43;98489.66;;;19.05;100.00
33781;BME280;20097;50.832;19.100;2022-07-06T06:00:49;98487.06;;;19.17;100.00
33781;BME280;20097;50.832;19.100;2022-07-06T06:05:55;98480.72;;;19.36;100.00
33781;BME280;20097;50.832;19.100;2022-07-06T06:11:01;98495.19;;;19.63;100.00
33781;BME280;20097;50.832;19.100;2022-07-06T06:16:18;98492.09;;;19.66;100.00
33781;BME280;20097;50.832;19.100;2022-07-06T06:21:23;98495.19;;;20.04;100.00
33781;BME280;20097;50.832;19.100;2022-07-06T06:26:33;98521.28;;;20.30;100.00
33781;BME280;20097;50.832;19.100;2022-07-06T06:31:41;98523.09;;;20.76;100.00
33781;BME280;20097;50.832;19.100;2022-07-06T06:36:46;98520.63;;;21.09;100.00
33781;BME280;20097;50.832;19.100;2022-07-06T06:41:52;98524.22;;;21.15;100.00
33781;BME280;20097;50.832;19.100;2022-07-06T06:47:01;98528.53;;;20.81;100.00
33781;BME280;20097;50.832;19.100;2022-07-06T06:52:05;98523.69;;;20.78;100.00
33781;BME280;20097;50.832;19.100;2022-07-06T06:57:30;98536.47;;;20.23;100.00
33781;BME280;20097;50.832;19.100;2022-07-06T07:02:39;98530.53;;;19.98;100.00
33781;BME280;20097;50.832;19.100;2022-07-06T07:07:44;98526.38;;;19.91;100.00
33781;BME280;20097;50.832;19.100;2022-07-06T07:12:48;98532.28;;;20.04;100.00
33781;BME280;20097;50.832;19.100;2022-07-06T07:18:05;98534.34;;;20.02;100.00
33781;BME280;20097;50.832;19.100;2022-07-06T07:23:18;98536.38;;;19.77;100.00
33781;BME280;20097;50.832;19.100;2022-07-06T07:28:25;98529.13;;;20.49;100.00
33781;BME280;20097;50.832;19.100;2022-07-06T07:33:31;98539.47;;;20.15;100.00
33781;BME280;20097;50.832;19.100;2022-07-06T07:38:39;98533.13;;;19.75;100.00
33781;BME280;20097;50.832;19.100;2022-07-06T07:43:43;98544.09;;;19.13;100.00
33781;BME280;20097;50.832;19.100;2022-07-06T07:48:49;98558.44;;;19.05;100.00
33781;BME280;20097;50.832;19.100;2022-07-06T07:53:55;98575.53;;;18.85;100.00
33781;BME280;20097;50.832;19.100;2022-07-06T07:58:59;98568.72;;;18.28;100.00
33781;BME280;20097;50.832;19.100;2022-07-06T08:04:08;98592.03;;;18.13;100.00
33781;BME280;20097;50.832;19.100;2022-07-06T08:09:16;98592.31;;;17.67;100.00
33781;BME280;20097;50.832;19.100;2022-07-06T08:14:21;98606.31;;;17.68;100.00
33781;BME280;20097;50.832;19.100;2022-07-06T08:19:26;98608.66;;;18.14;100.00
33781;BME280;20097;50.832;19.100;2022-07-06T08:24:31;98600.28;;;18.72;100.00
33781;BME280;20097;50.832;19.100;2022-07-06T08:29:35;98601.09;;;19.34;100.00
33781;BME280;20097;50.832;19.100;2022-07-06T08:34:41;98593.91;;;20.53;100.00
33781;BME280;20097;50.832;19.100;2022-07-06T08:39:47;98579.16;;;21.03;100.00
33781;BME280;20097;50.832;19.100;2022-07-06T08:44:53;98575.78;;;21.58;100.00
33781;BME280;20097;50.832;19.100;2022-07-06T08:50:04;98577.66;;;21.58;98.08
33781;BME280;20097;50.832;19.100;2022-07-06T08:55:09;98574.22;;;22.02;100.00
33781;BME280;20097;50.832;19.100;2022-07-06T09:00:15;98587.34;;;21.92;98.13
33781;BME280;20097;50.832;19.100;2022-07-06T09:05:22;98589.88;;;21.59;100.00
33781;BME280;20097;50.832;19.100;2022-07-06T09:10:27;98585.31;;;21.43;100.00
33781;BME280;20097;50.832;19.100;2022-07-06T09:15:33;98589.94;;;21.36;100.00
33781;BME280;20097;50.832;19.100;2022-07-06T09:20:41;98586.94;;;21.44;100.00
33781;BME280;20097;50.832;19.100;2022-07-06T09:25:48;98580.66;;;21.10;100.00
33781;BME280;20097;50.832;19.100;2022-07-06T09:30:55;98579.47;;;20.95;100.00
33781;BME280;20097;50.832;19.100;2022-07-06T09:36:09;98572.00;;;20.92;100.00
33781;BME280;20097;50.832;19.100;2022-07-06T09:41:13;98580.06;;;21.20;100.00
33781;BME280;20097;50.832;19.100;2022-07-06T09:46:18;98572.75;;;21.38;100.00
33781;BME280;20097;50.832;19.100;2022-07-06T09:51:30;98570.22;;;21.60;100.00
33781;BME280;20097;50.832;19.100;2022-07-06T09:56:38;98563.25;;;21.82;100.00
33781;BME280;20097;50.832;19.100;2022-07-06T10:01:43;98566.63;;;21.94;99.39
33781;BME280;20097;50.832;19.100;2022-07-06T10:06:50;98554.28;;;22.16;99.78
33781;BME280;20097;50.832;19.100;2022-07-06T10:11:56;98556.69;;;22.34;97.34
33781;BME280;20097;50.832;19.100;2022-07-06T10:17:03;98562.19;;;22.61;93.33
33781;BME280;20097;50.832;19.100;2022-07-06T10:22:10;98558.53;;;22.50;95.12
33781;BME280;20097;50.832;19.100;2022-07-06T10:27:15;98557.66;;;22.45;96.90
33781;BME280;20097;50.832;19.100;2022-07-06T10:32:20;98562.78;;;22.84;93.92
33781;BME280;20097;50.832;19.100;2022-07-06T10:37:27;98565.09;;;23.19;88.21
33781;BME280;20097;50.832;19.100;2022-07-06T10:42:46;98555.91;;;23.75;80.59
33781;BME280;20097;50.832;19.100;2022-07-06T10:48:16;98554.88;;;24.02;76.00
33781;BME280;20097;50.832;19.100;2022-07-06T10:53:27;98575.19;;;23.34;74.48
33781;BME280;20097;50.832;19.100;2022-07-06T10:58:48;98564.25;;;23.57;74.28
33781;BME280;20097;50.832;19.100;2022-07-06T11:04:07;98581.13;;;23.89;66.08
33781;BME280;20097;50.832;19.100;2022-07-06T11:09:14;98582.13;;;23.83;66.91
33781;BME280;20097;50.832;19.100;2022-07-06T11:14:21;98590.50;;;23.05;67.00
33781;BME280;20097;50.832;19.100;2022-07-06T11:19:26;98593.25;;;22.93;68.28
33781;BME280;20097;50.832;19.100;2022-07-06T11:24:34;98591.00;;;23.40;66.01
33781;BME280;20097;50.832;19.100;2022-07-06T11:29:39;98595.25;;;23.41;66.42
33781;BME280;20097;50.832;19.100;2022-07-06T11:34:44;98607.16;;;22.79;76.71
33781;BME280;20097;50.832;19.100;2022-07-06T11:39:49;98608.47;;;22.76;82.94
33781;BME280;20097;50.832;19.100;2022-07-06T11:44:54;98600.41;;;22.55;80.78
33781;BME280;20097;50.832;19.100;2022-07-06T11:49:58;98605.94;;;23.25;81.08
33781;BME280;20097;50.832;19.100;2022-07-06T11:55:05;98618.09;;;22.99;78.76
33781;BME280;20097;50.832;19.100;2022-07-06T12:00:11;98621.53;;;22.61;70.67
33781;BME280;20097;50.832;19.100;2022-07-06T12:05:29;98617.63;;;22.85;68.42
33781;BME280;20097;50.832;19.100;2022-07-06T12:10:36;98604.41;;;22.24;74.90
33781;BME280;20097;50.832;19.100;2022-07-06T12:15:41;98607.19;;;22.01;80.13
33781;BME280;20097;50.832;19.100;2022-07-06T12:20:45;98607.94;;;22.13;80.99
33781;BME280;20097;50.832;19.100;2022-07-06T12:25:52;98609.88;;;22.51;82.76
33781;BME280;20097;50.832;19.100;2022-07-06T12:30:58;98612.97;;;22.59;79.94
33781;BME280;20097;50.832;19.100;2022-07-06T12:36:11;98604.91;;;22.54;85.03
33781;BME280;20097;50.832;19.100;2022-07-06T12:41:33;98609.66;;;21.91;86.42
33781;BME280;20097;50.832;19.100;2022-07-06T12:46:40;98607.13;;;21.85;91.28
33781;BME280;20097;50.832;19.100;2022-07-06T12:52:09;98596.81;;;22.99;81.00
33781;BME280;20097;50.832;19.100;2022-07-06T12:57:17;98601.53;;;23.14;77.00
33781;BME280;20097;50.832;19.100;2022-07-06T13:02:24;98607.59;;;23.09;72.56
33781;BME280;20097;50.832;19.100;2022-07-06T13:07:49;98593.78;;;22.57;76.05
33781;BME280;20097;50.832;19.100;2022-07-06T13:12:55;98586.97;;;22.17;70.67
33781;BME280;20097;50.832;19.100;2022-07-06T13:18:00;98596.38;;;22.52;69.82
33781;BME280;20097;50.832;19.100;2022-07-06T13:23:04;98605.81;;;22.15;72.55
33781;BME280;20097;50.832;19.100;2022-07-06T13:28:10;98596.66;;;22.23;76.30
33781;BME280;20097;50.832;19.100;2022-07-06T13:33:15;98602.06;;;22.44;72.76
33781;BME280;20097;50.832;19.100;2022-07-06T13:38:19;98625.75;;;22.29;72.94
33781;BME280;20097;50.832;19.100;2022-07-06T13:43:25;98644.34;;;21.33;87.67
33781;BME280;20097;50.832;19.100;2022-07-06T13:48:40;98674.72;;;19.91;100.00
33781;BME280;20097;50.832;19.100;2022-07-06T13:53:44;98681.56;;;18.83;100.00
33781;BME280;20097;50.832;19.100;2022-07-06T13:58:53;98669.34;;;19.68;100.00
33781;BME280;20097;50.832;19.100;2022-07-06T14:03:58;98653.31;;;21.55;100.00
33781;BME280;20097;50.832;19.100;2022-07-06T14:09:02;98657.75;;;21.15;100.00
33781;BME280;20097;50.832;19.100;2022-07-06T14:14:08;98658.47;;;20.99;98.98
33781;BME280;20097;50.832;19.100;2022-07-06T14:19:12;98661.06;;;20.76;96.28
33781;BME280;20097;50.832;19.100;2022-07-06T14:24:22;98654.22;;;20.69;100.00
33781;BME280;20097;50.832;19.100;2022-07-06T14:29:35;98656.69;;;20.93;100.00
33781;BME280;20097;50.832;19.100;2022-07-06T14:34:40;98643.78;;;21.20;98.25
33781;BME280;20097;50.832;19.100;2022-07-06T14:39:45;98645.97;;;21.00;87.06
33781;BME280;20097;50.832;19.100;2022-07-06T14:44:53;98644.25;;;21.05;77.14
33781;BME280;20097;50.832;19.100;2022-07-06T14:49:58;98647.09;;;20.69;71.47
33781;BME280;20097;50.832;19.100;2022-07-06T14:55:06;98645.38;;;20.63;69.07
33781;BME280;20097;50.832;19.100;2022-07-06T15:00:18;98631.34;;;20.33;71.45
33781;BME280;20097;50.832;19.100;2022-07-06T15:05:23;98632.25;;;19.97;70.99
33781;BME280;20097;50.832;19.100;2022-07-06T15:10:27;98627.59;;;19.81;72.32
33781;BME280;20097;50.832;19.100;2022-07-06T15:15:33;98624.19;;;19.63;75.36
33781;BME280;20097;50.832;19.100;2022-07-06T15:21:00;98616.56;;;19.66;78.74
33781;BME280;20097;50.832;19.100;2022-07-06T15:26:05;98612.31;;;19.65;83.53
33781;BME280;20097;50.832;19.100;2022-07-06T15:31:11;98605.94;;;19.55;89.87
33781;BME280;20097;50.832;19.100;2022-07-06T15:36:24;98615.19;;;19.64;83.94
33781;BME280;20097;50.832;19.100;2022-07-06T15:41:28;98610.53;;;19.77;77.38
33781;BME280;20097;50.832;19.100;2022-07-06T15:46:34;98605.47;;;20.93;71.87
33781;BME280;20097;50.832;19.100;2022-07-06T15:51:39;98600.97;;;21.56;64.47
33781;BME280;20097;50.832;19.100;2022-07-06T15:56:43;98603.34;;;21.81;62.49
33781;BME280;20097;50.832;19.100;2022-07-06T16:01:50;98609.00;;;21.84;64.29
33781;BME280;20097;50.832;19.100;2022-07-06T16:06:56;98607.63;;;21.82;63.21
33781;BME280;20097;50.832;19.100;2022-07-06T16:12:21;98603.59;;;21.79;60.02
33781;BME280;20097;50.832;19.100;2022-07-06T16:17:27;98604.13;;;21.53;60.40
33781;BME280;20097;50.832;19.100;2022-07-06T16:22:34;98597.19;;;21.40;59.56
33781;BME280;20097;50.832;19.100;2022-07-06T16:27:39;98600.47;;;21.19;59.36
33781;BME280;20097;50.832;19.100;2022-07-06T16:32:45;98595.88;;;21.15;63.10
33781;BME280;20097;50.832;19.100;2022-07-06T16:37:49;98596.22;;;20.95;62.41
33781;BME280;20097;50.832;19.100;2022-07-06T16:42:56;98595.53;;;20.88;61.94
33781;BME280;20097;50.832;19.100;2022-07-06T16:48:01;98601.97;;;20.58;63.42
33781;BME280;20097;50.832;19.100;2022-07-06T16:53:05;98599.22;;;20.53;62.92
33781;BME280;20097;50.832;19.100;2022-07-06T16:58:10;98597.13;;;20.43;63.86
33781;BME280;20097;50.832;19.100;2022-07-06T17:03:15;98594.34;;;20.38;63.36
33781;BME280;20097;50.832;19.100;2022-07-06T17:08:20;98589.63;;;20.28;65.91
33781;BME280;20097;50.832;19.100;2022-07-06T17:13:24;98584.59;;;20.09;63.77
33781;BME280;20097;50.832;19.100;2022-07-06T17:18:31;98584.91;;;20.01;63.93
33781;BME280;20097;50.832;19.100;2022-07-06T17:23:36;98573.03;;;19.92;66.84
33781;BME280;20097;50.832;19.100;2022-07-06T17:28:40;98580.41;;;19.60;71.61
33781;BME280;20097;50.832;19.100;2022-07-06T17:33:46;98574.72;;;19.57;71.92
33781;BME280;20097;50.832;19.100;2022-07-06T17:38:50;98577.78;;;19.42;74.10
33781;BME280;20097;50.832;19.100;2022-07-06T17:43:55;98587.28;;;19.32;75.39
33781;BME280;20097;50.832;19.100;2022-07-06T17:49:00;98584.97;;;19.17;80.53
33781;BME280;20097;50.832;19.100;2022-07-06T17:54:05;98590.56;;;18.91;83.12
33781;BME280;20097;50.832;19.100;2022-07-06T17:59:09;98593.69;;;18.63;88.12
33781;BME280;20097;50.832;19.100;2022-07-06T18:04:17;98589.94;;;18.46;87.88
33781;BME280;20097;50.832;19.100;2022-07-06T18:09:22;98591.53;;;18.23;93.10
33781;BME280;20097;50.832;19.100;2022-07-06T18:14:26;98596.28;;;18.14;96.30
33781;BME280;20097;50.832;19.100;2022-07-06T18:19:32;98591.81;;;18.15;100.00
33781;BME280;20097;50.832;19.100;2022-07-06T18:24:37;98594.81;;;17.94;100.00
33781;BME280;20097;50.832;19.100;2022-07-06T18:29:42;98598.59;;;17.66;100.00
33781;BME280;20097;50.832;19.100;2022-07-06T18:34:48;98596.44;;;17.50;100.00
33781;BME280;20097;50.832;19.100;2022-07-06T18:39:52;98607.03;;;17.31;100.00
33781;BME280;20097;50.832;19.100;2022-07-06T18:44:57;98597.16;;;17.20;100.00
33781;BME280;20097;50.832;19.100;2022-07-06T18:50:04;98602.47;;;17.07;100.00
33781;BME280;20097;50.832;19.100;2022-07-06T18:55:10;98604.09;;;16.88;100.00
33781;BME280;20097;50.832;19.100;2022-07-06T19:00:17;98611.88;;;16.64;100.00
33781;BME280;20097;50.832;19.100;2022-07-06T19:05:23;98612.03;;;16.36;100.00
33781;BME280;20097;50.832;19.100;2022-07-06T19:10:27;98613.88;;;16.29;100.00
33781;BME280;20097;50.832;19.100;2022-07-06T19:15:32;98613.44;;;16.06;100.00
33781;BME280;20097;50.832;19.100;2022-07-06T19:20:38;98617.44;;;15.76;100.00
33781;BME280;20097;50.832;19.100;2022-07-06T19:25:42;98631.13;;;15.65;100.00
33781;BME280;20097;50.832;19.100;2022-07-06T19:30:46;98630.13;;;15.59;100.00
33781;BME280;20097;50.832;19.100;2022-07-06T19:35:52;98618.31;;;15.42;100.00
33781;BME280;20097;50.832;19.100;2022-07-06T19:40:57;98627.97;;;15.35;100.00
33781;BME280;20097;50.832;19.100;2022-07-06T19:46:01;98632.97;;;15.24;100.00
33781;BME280;20097;50.832;19.100;2022-07-06T19:51:07;98635.28;;;15.05;100.00
33781;BME280;20097;50.832;19.100;2022-07-06T19:56:12;98636.25;;;14.98;100.00
33781;BME280;20097;50.832;19.100;2022-07-06T20:01:17;98628.59;;;14.75;100.00
33781;BME280;20097;50.832;19.100;2022-07-06T20:06:23;98638.28;;;14.68;100.00
33781;BME280;20097;50.832;19.100;2022-07-06T20:11:27;98629.78;;;14.66;100.00
33781;BME280;20097;50.832;19.100;2022-07-06T20:16:31;98634.00;;;14.67;100.00
33781;BME280;20097;50.832;19.100;2022-07-06T20:21:38;98632.34;;;14.87;100.00
33781;BME280;20097;50.832;19.100;2022-07-06T20:26:42;98630.38;;;14.96;100.00
33781;BME280;20097;50.832;19.100;2022-07-06T20:31:48;98635.13;;;15.13;100.00
33781;BME280;20097;50.832;19.100;2022-07-06T20:36:54;98644.09;;;15.26;100.00
33781;BME280;20097;50.832;19.100;2022-07-06T20:41:58;98642.31;;;15.33;100.00
33781;BME280;20097;50.832;19.100;2022-07-06T20:47:05;98636.50;;;15.44;100.00
33781;BME280;20097;50.832;19.100;2022-07-06T20:52:11;98642.22;;;15.54;100.00
33781;BME280;20097;50.832;19.100;2022-07-06T20:57:15;98638.03;;;15.66;100.00
33781;BME280;20097;50.832;19.100;2022-07-06T21:02:20;98637.63;;;15.69;100.00
33781;BME280;20097;50.832;19.100;2022-07-06T21:07:25;98649.81;;;15.83;100.00
33781;BME280;20097;50.832;19.100;2022-07-06T21:12:30;98649.03;;;15.89;100.00
33781;BME280;20097;50.832;19.100;2022-07-06T21:17:34;98646.03;;;15.92;100.00
33781;BME280;20097;50.832;19.100;2022-07-06T21:22:40;98648.84;;;15.84;100.00
33781;BME280;20097;50.832;19.100;2022-07-06T21:27:44;98654.66;;;15.79;100.00
33781;BME280;20097;50.832;19.100;2022-07-06T21:32:49;98656.84;;;15.56;100.00
33781;BME280;20097;50.832;19.100;2022-07-06T21:37:55;98655.88;;;15.36;100.00
33781;BME280;20097;50.832;19.100;2022-07-06T21:42:59;98655.16;;;15.14;100.00
33781;BME280;20097;50.832;19.100;2022-07-06T21:48:05;98655.84;;;14.95;100.00
33781;BME280;20097;50.832;19.100;2022-07-06T21:53:11;98650.31;;;14.84;100.00
33781;BME280;20097;50.832;19.100;2022-07-06T21:58:15;98652.84;;;14.71;100.00
33781;BME280;20097;50.832;19.100;2022-07-06T22:03:20;98649.09;;;14.59;100.00
33781;BME280;20097;50.832;19.100;2022-07-06T22:08:26;98648.25;;;14.52;100.00
33781;BME280;20097;50.832;19.100;2022-07-06T22:13:30;98645.44;;;14.53;100.00
33781;BME280;20097;50.832;19.100;2022-07-06T22:18:48;98650.44;;;14.48;100.00
33781;BME280;20097;50.832;19.100;2022-07-06T22:23:55;98648.38;;;14.44;100.00
33781;BME280;20097;50.832;19.100;2022-07-06T22:29:00;98638.31;;;14.47;100.00
33781;BME280;20097;50.832;19.100;2022-07-06T22:34:05;98648.19;;;14.45;100.00
33781;BME280;20097;50.832;19.100;2022-07-06T22:39:11;98649.44;;;14.49;100.00
33781;BME280;20097;50.832;19.100;2022-07-06T22:44:16;98641.78;;;14.54;100.00
33781;BME280;20097;50.832;19.100;2022-07-06T22:49:20;98641.00;;;14.54;100.00
33781;BME280;20097;50.832;19.100;2022-07-06T22:54:26;98648.81;;;14.47;100.00
33781;BME280;20097;50.832;19.100;2022-07-06T22:59:31;98635.44;;;14.42;100.00
33781;BME280;20097;50.832;19.100;2022-07-06T23:04:35;98643.94;;;14.44;100.00
33781;BME280;20097;50.832;19.100;2022-07-06T23:09:41;98633.38;;;14.38;100.00
33781;BME280;20097;50.832;19.100;2022-07-06T23:14:46;98632.06;;;14.27;100.00
33781;BME280;20097;50.832;19.100;2022-07-06T23:19:50;98635.00;;;14.18;100.00
33781;BME280;20097;50.832;19.100;2022-07-06T23:24:56;98634.16;;;14.17;100.00
33781;BME280;20097;50.832;19.100;2022-07-06T23:30:01;98650.41;;;14.06;100.00
33781;BME280;20097;50.832;19.100;2022-07-06T23:35:07;98647.72;;;14.00;100.00
33781;BME280;20097;50.832;19.100;2022-07-06T23:40:14;98634.72;;;13.92;100.00
33781;BME280;20097;50.832;19.100;2022-07-06T23:45:19;98641.44;;;13.79;100.00
33781;BME280;20097;50.832;19.100;2022-07-06T23:50:23;98636.28;;;13.86;100.00
33781;BME280;20097;50.832;19.100;2022-07-06T23:55:29;98639.72;;;13.87;100.00
